Terminal Aerodrome Forecast
Issued by NWS

Home | Current Version | Previous Version | Text Only | Print | Product List | Glossary Off
Versions: 1 2 3 4 5 6 7 8 9 10 11 12 13 14 15 16

000
FTUS43 KIWX 271700
TAFSBN
TAF
KSBN 271720Z 2718/2818 26013G20KT P6SM VCSH BKN040
      TEMPO 2718/2720 BKN030
     FM272100 30013KT P6SM BKN030
     FM280100 VRB02KT P6SM SKC
     FM281600 17007KT P6SM FEW050=

USA.gov is the U.S. government's official web portal to all federal, state and local government web resources and services.